Latest Coastal Weather Observations for Portland Airport

IDV60701

Issued at 7:55 pm EST Wednesday 23 April 2014 (issued every 10 minutes, with the page automatically refreshed every 10 minutes)

About coastal observations | Map of coastal stations | Coastal observations for VIC | Marine services | Other Formats
Station Details ID: 090171 Name: CASHMORE AIRPORT Lat: -38.31 Lon: 141.47 Height: 80.9 m
Data from the previous 72 hours. | See also: Recent months at Portland Airport
Date/Time
EST
Temp

°C
Wind Pressure Rain
since 9am
mm
Weather Cloud Vis
km
Sea
Height
m
Swell
Dir
 
Speed
knots
Gust
knots
hPa Trend Height
m
Period
s
Dir
23/07:30pm 14.2 NW 10 16 1012.2 - 0.0 - Partly cloudy 10 - - - -
23/07:00pm 13.4 NW 8 12 1012.2 - 0.0 - - 10 - - - -
23/06:30pm 13.0 NNW 6 9 1012.0 - 0.0 - Partly cloudy 10 - - - -
23/06:00pm 14.3 NNW 7 10 1011.9 - 0.0 - - 10 - - - -
23/05:30pm 15.4 NW 6 9 1011.9 - 0.0 - - 10 - - - -
23/05:00pm 16.1 WNW 9 13 1011.9 - 0.0 - Partly cloudy 10 - - - -
23/04:30pm 16.1 WNW 9 12 1012.0 - 0.0 - Partly cloudy 10 - - - -
23/04:00pm 16.9 NW 11 16 1012.1 - 0.0 - - 10 - - - -
23/03:30pm 17.3 WNW 11 15 1012.4 - 0.0 - - 10 - - - -
23/03:00pm 17.3 WNW 13 19 1012.6 - 0.0 - - 10 - - - -
23/02:30pm 17.4 NW 13 19 1013.0 - 0.0 - Partly cloudy 10 - - - -
23/02:00pm 16.1 NW 12 19 1013.5 - 0.0 - Partly cloudy 10 - - - -
23/01:30pm 17.0 NNW 13 21 1013.6 - 0.0 - Partly cloudy 10 - - - -
23/01:00pm 15.7 NW 13 22 1014.1 - 0.0 - Partly cloudy 10 - - - -
23/12:30pm 16.3 NNW 12 17 1014.8 - 0.0 - Partly cloudy 10 - - - -
23/12:00pm 15.4 NNW 12 19 1015.1 - 0.0 - - 44 - - - -
23/11:30am 15.1 NNW 10 15 1015.5 - 0.0 - - - - - - -
23/11:00am 13.9 N 11 14 1015.8 - 0.0 - - - - - - -
23/10:30am 12.8 N 9 12 1016.2 - 0.0 - - - - - - -
23/10:00am 12.4 N 8 11 1016.6 - 0.0 - - 10 - - - -
23/09:30am 12.4 NNW 8 11 1016.8 - 0.0 - - 10 - - - -
23/09:00am 11.8 NNW 7 10 1016.9 - 0.4 - - 10 - - - -
23/08:30am 10.7 NNW 7 10 1016.7 - 0.2 - - 10 - - - -
23/08:00am 9.0 N 6 8 1016.6 - 0.2 - - 10 - - - -
23/07:30am 8.3 N 6 7 1016.4 - 0.2 - - 10 - - - -
23/07:00am 7.8 N 6 7 1015.9 - 0.2 - - 10 - - - -
23/06:30am 8.0 N 6 7 1016.3 - 0.2 - - 10 - - - -
23/06:00am 7.5 N 7 8 1016.4 - 0.2 - - 10 - - - -
23/05:30am 7.2 N 6 7 1016.5 - 0.2 - - 10 - - - -
23/05:00am 6.7 NNW 4 5 1016.4 - 0.2 - - 10 - - - -
23/04:30am 6.7 NNW 3 4 1016.4 - 0.2 - - 10 - - - -
23/04:00am 7.1 N 5 6 1016.1 - 0.2 - - 10 - - - -
23/03:43am 7.3 N 6 7 1015.9 - 0.2 - - 10 - - - -
23/03:30am 7.6 N 7 8 1015.9 - 0.2 - Partly cloudy 5 - - - -
23/03:06am 8.3 N 6 8 1016.1 - 0.2 - - 6 - - - -
23/03:00am 8.4 N 5 7 1016.2 - 0.2 - - 10 - - - -
23/02:30am 8.5 N 5 6 1016.6 - 0.2 - - 10 - - - -
23/02:00am 8.9 N 4 5 1016.8 - 0.2 - Partly cloudy 10 - - - -
23/01:30am 9.1 N 6 7 1017.2 - 0.2 - Partly cloudy 10 - - - -
23/01:00am 9.8 N 6 8 1017.3 - 0.2 - Partly cloudy 10 - - - -
23/12:30am 10.6 N 6 7 1017.5 - 0.2 - Partly cloudy 10 - - - -
23/12:00am 10.9 NNW 7 8 1017.8 - 0.2 - Cloudy 10 - - - -
 
Date/Time
EST
Temp

°C
Wind Pressure Rain
since 9am
mm
Weather Cloud Vis
km
Sea
Height
m
Swell
Dir
 
Speed
knots
Gust
knots
hPa Trend Height
m
Period
s
Dir
22/11:30pm 10.7 NNW 6 7 1017.7 - 0.2 - Partly cloudy 10 - - - -
22/11:02pm 11.3 W 3 4 1017.9 - 0.2 - Partly cloudy 10 - - - -
22/11:00pm 11.4 W 3 4 1017.9 - 0.2 - Partly cloudy 10 - - - -
22/10:48pm 11.6 W 8 11 1018.1 - 0.2 - Partly cloudy 6 - - - -
22/10:30pm 9.9 W 3 4 1018.2 - 0.0 - Partly cloudy 10 - - - -
22/10:00pm 10.2 W 2 4 1018.2 - 0.0 - Partly cloudy 10 - - - -
22/09:30pm 9.4 SW 4 5 1018.1 - 0.0 - Partly cloudy 10 - - - -
22/09:00pm 9.1 SW 4 4 1017.9 - 0.0 - Mostly clear 10 - - - -
22/08:30pm 9.1 SW 3 4 1017.9 - 0.0 - Partly cloudy 10 - - - -
22/08:00pm 9.2 SW 4 4 1017.8 - 0.0 - Partly cloudy 10 - - - -
22/07:30pm 9.4 SW 4 5 1017.6 - 0.0 - - 10 - - - -
22/07:00pm 10.3 SW 4 4 1017.4 - 0.0 - Partly cloudy 10 - - - -
22/06:30pm 11.1 SW 3 4 1017.0 - 0.0 - Partly cloudy 10 - - - -
22/06:00pm 12.8 SW 5 6 1016.8 - 0.0 - Mostly clear 10 - - - -
22/05:30pm 14.0 WSW 7 9 1016.6 - 0.0 - Partly cloudy 10 - - - -
22/05:00pm 15.3 W 8 11 1016.4 - 0.0 - Partly cloudy 10 - - - -
22/04:30pm 15.4 W 10 14 1016.2 - 0.0 - Partly cloudy 10 - - - -
22/04:00pm 15.2 W 10 14 1016.1 - 0.0 - Partly cloudy 10 - - - -
22/03:30pm 15.7 W 8 12 1015.9 - 0.0 - Partly cloudy 10 - - - -
22/03:00pm 16.3 WSW 9 15 1015.7 - 0.0 - Cloudy 10 - - - -
22/02:30pm 15.7 W 9 13 1015.5 - 0.0 - Partly cloudy 10 - - - -
22/02:00pm 15.5 W 9 11 1015.6 - 0.0 - Partly cloudy 10 - - - -
22/01:30pm 15.6 WSW 9 13 1015.6 - 0.0 - Partly cloudy 10 - - - -
22/01:00pm 16.0 WSW 8 12 1015.6 - 0.0 - Partly cloudy - - - - -
22/12:30pm 16.8 W 10 15 1015.9 - 0.0 - - 10 - - - -
22/12:00pm 16.3 W 10 14 1016.0 - 0.0 - Mostly clear 10 - - - -
22/11:30am 16.6 W 10 14 1015.9 - 0.0 - Partly cloudy 10 - - - -
22/11:00am 16.4 WSW 7 10 1015.9 - 0.0 - - 10 - - - -
22/10:30am 15.5 SSW 7 12 1015.7 - 0.0 - - 10 - - - -
22/10:00am 15.3 SSW 7 11 1015.5 - 0.0 - - 10 - - - -
22/09:30am 15.2 SW 7 10 1015.2 - 0.0 - - 10 - - - -
22/09:00am 14.6 SW 6 9 1014.8 - 10.4 - - - - - - -
22/08:30am 14.2 SW 7 9 1014.6 - 10.4 - - 10 - - - -
22/08:00am 13.8 WSW 4 5 1014.3 - 10.4 - - 10 - - - -
22/07:30am 13.2 WSW 4 6 1013.8 - 10.4 - - 10 - - - -
22/07:00am 13.6 WSW 6 7 1013.4 - 10.4 - - 10 - - - -
22/06:30am 14.2 SW 8 13 1013.0 - 10.4 - - 10 - - - -
22/06:00am 14.3 SW 9 11 1012.5 - 10.4 - - 10 - - - -
22/05:30am 14.5 WSW 7 9 1012.0 - 10.2 - - 10 - - - -
22/05:00am 14.6 SW 8 10 1011.4 - 10.2 - - 10 - - - -
22/04:30am 14.8 W 12 15 1010.8 - 10.0 - - 10 - - - -
22/04:00am 14.8 WNW 14 23 1010.3 - 10.0 - - 10 - - - -
22/03:30am 14.6 NW 12 16 1010.0 - 10.0 - - 10 - - - -
22/03:00am 14.7 NW 14 19 1010.5 - 10.0 - - 10 - - - -
22/02:46am 14.8 NW 16 24 1010.7 - 9.8 - - 10 - - - -
22/02:30am 14.8 NW 21 31 1010.8 - 9.2 - - 5 - - - -
22/02:11am 15.0 WNW 16 29 1010.8 - 7.8 - - 7 - - - -
22/02:00am 15.2 WNW 13 19 1011.1 - 7.6 - - 3 - - - -
22/01:36am 15.9 WNW 10 14 1011.4 - 5.4 - - 6 - - - -
22/01:30am 15.9 WNW 10 14 1011.2 - 5.4 - - 8 - - - -
22/01:13am 15.9 WNW 8 11 1010.9 - 5.0 - - 8 - - - -
22/01:00am 16.0 WNW 8 14 1010.7 - 4.8 - - 5 - - - -
22/12:53am 16.1 WNW 10 14 1011.0 - 4.6 - - 6 - - - -
22/12:30am 16.2 WNW 11 15 1011.1 - 4.2 - - 10 - - - -
22/12:00am 15.9 WNW 10 12 1010.8 - 4.0 - - 10 - - - -
 
Date/Time
EST
Temp

°C
Wind Pressure Rain
since 9am
mm
Weather Cloud Vis
km
Sea
Height
m
Swell
Dir
 
Speed
knots
Gust
knots
hPa Trend Height
m
Period
s
Dir
21/11:30pm 15.8 N 9 12 1010.0 - 4.0 - - 10 - - - -
21/11:16pm 16.6 NNW 13 17 1010.2 - 4.0 - - 10 - - - -
21/11:00pm 17.1 WNW 16 27 1010.6 - 3.6 - - 6 - - - -
21/10:55pm 17.8 NW 17 27 1010.8 - 3.4 - - 10 - - - -
21/10:30pm 18.3 NW 18 26 1010.3 - 3.0 - - 10 - - - -
21/10:12pm 17.8 NNW 15 26 1009.7 - 3.0 - - 10 - - - -
21/10:00pm 17.3 N 14 19 1009.5 - 3.0 - - 10 - - - -
21/09:30pm 16.9 N 15 23 1009.7 - 3.0 - - 10 - - - -
21/09:00pm 17.0 N 16 24 1010.4 - 2.8 - - 10 - - - -
21/08:30pm 16.6 N 16 25 1010.0 - 2.8 - - 10 - - - -
21/08:27pm 16.6 N 15 25 1009.9 - 2.8 - - 10 - - - -
21/08:00pm 17.0 N 15 23 1010.6 - 2.0 - - 10 - - - -
21/07:30pm 17.5 NNW 13 18 1010.8 - 1.2 - - 10 - - - -
21/07:00pm 17.9 NW 15 22 1011.0 - 1.0 - - 8 - - - -
21/06:30pm 20.1 NW 15 20 1010.4 - 0.6 - - 10 - - - -
21/06:09pm 20.6 NW 15 25 1010.1 - 0.6 - - 10 - - - -
21/06:00pm 19.9 NNW 9 12 1010.1 - 0.6 - - 10 - - - -
21/05:30pm 19.9 NNW 9 12 1009.1 - 0.6 - - 10 - - - -
21/05:00pm 19.4 N 9 12 1008.8 - 0.6 - - 10 - - - -
21/04:30pm 20.1 N 13 18 1008.9 - 0.6 - - 10 - - - -
21/04:00pm 20.3 N 12 18 1008.9 - 0.6 - - 10 - - - -
21/03:30pm 20.1 N 13 21 1009.0 - 0.6 - - 10 - - - -
21/03:00pm 19.8 N 15 21 1009.1 - 0.6 - - 10 - - - -
21/02:30pm 19.0 N 14 22 1008.8 - 0.6 - - 10 - - - -
21/02:00pm 18.6 N 12 17 1009.1 - 0.6 - - 10 - - - -
21/01:30pm 18.3 N 13 17 1010.1 - 0.6 - - 10 - - - -
21/01:00pm 18.0 N 14 20 1010.7 - 0.6 - - 10 - - - -
21/12:30pm 16.9 N 12 17 1011.0 - 0.6 - - 10 - - - -
21/12:00pm 16.2 N 13 19 1012.0 - 0.6 - - 10 - - - -
21/11:30am 15.7 N 10 16 1013.0 - 0.6 - - 10 - - - -
21/11:00am 14.7 N 5 7 1013.6 - 0.6 - - 10 - - - -
21/10:30am 15.0 N 8 12 1014.5 - 0.0 - - 10 - - - -
21/10:00am 15.3 N 10 15 1014.0 - 0.0 - - 10 - - - -
21/09:30am 14.0 NNE 8 11 1014.3 - 0.0 - - 10 - - - -
21/09:00am 13.5 NNE 7 10 1015.1 - 2.0 - - 10 - - - -
21/08:30am 13.2 NNE 8 10 1015.2 - 2.0 - - 10 - - - -
21/08:00am 13.0 NNE 6 8 1015.4 - 2.0 - - 10 - - - -
21/07:30am 12.9 N 4 6 1015.6 - 2.0 - - 10 - - - -
21/07:00am 12.7 N 6 8 1015.9 - 2.0 - - 10 - - - -
21/06:30am 12.7 N 5 7 1015.9 - 2.0 - - 10 - - - -
21/06:00am 12.8 N 5 7 1016.2 - 2.0 - - 10 - - - -
21/05:30am 12.8 N 4 6 1015.6 - 2.0 - - 10 - - - -
21/05:00am 12.7 NNW 5 6 1016.1 - 2.0 - - 10 - - - -
21/04:30am 12.7 N 5 7 1015.7 - 2.0 - - 10 - - - -
21/04:19am 12.7 NNW 6 8 1015.7 - 2.0 - - 10 - - - -
21/04:00am 12.8 NNW 5 7 1015.8 - 2.0 - - 5 - - - -
21/03:30am 12.7 N 5 7 1015.5 - 2.0 - - 1 - - - -
21/03:00am 12.6 N 5 7 1015.6 - 2.0 - - 0.4 - - - -
21/02:30am 12.3 N 6 8 1015.7 - 2.0 - - 0.6 - - - -
21/02:09am 12.1 NNW 4 6 1016.0 - 2.0 - - 6 - - - -
21/02:00am 12.1 NNW 5 6 1016.1 - 2.0 - - 10 - - - -
21/01:30am 12.4 CALM 0 4 1016.4 - 2.0 - - 10 - - - -
21/01:09am 12.9 NNW 4 6 1016.5 - 2.0 - - 10 - - - -
21/01:00am 13.3 WNW 4 6 1016.6 - 2.0 - - 7 - - - -
21/12:42am 13.4 NW 5 7 1016.5 - 1.8 - - 5 - - - -
21/12:30am 13.6 NW 6 8 1016.6 - 1.6 - - 7 - - - -
21/12:12am 13.5 WNW 5 7 1016.4 - 1.6 - - 10 - - - -
21/12:00am 13.5 NW 5 7 1016.4 - 1.6 - - 5 - - - -
 
Date/Time
EST
Temp

°C
Wind Pressure Rain
since 9am
mm
Weather Cloud Vis
km
Sea
Height
m
Swell
Dir
 
Speed
knots
Gust
knots
hPa Trend Height
m
Period
s
Dir
20/11:31pm 13.0 NW 4 5 1016.6 - 1.4 - - 6 - - - -
20/11:30pm 13.0 NW 4 5 1016.5 - 1.4 - - 7 - - - -
20/11:23pm 12.8 NW 3 4 1016.6 - 1.4 - - 9 - - - -
20/11:00pm 12.8 NW 5 6 1016.8 - 1.4 - - 4 - - - -
20/10:44pm 13.1 NW 5 6 1016.8 - 1.4 - - 6 - - - -
20/10:30pm 13.6 WNW 4 5 1016.9 - 1.4 - - 10 - - - -
20/10:08pm 14.1 W 6 7 1017.0 - 1.4 - - 10 - - - -
20/10:00pm 14.3 W 5 8 1017.0 - 1.4 - - 8 - - - -
20/09:40pm 14.3 W 7 10 1016.9 - 1.2 - - 6 - - - -
20/09:30pm 14.3 NW 8 11 1016.8 - 1.0 - - 10 - - - -
20/09:00pm 14.2 NNW 7 10 1016.6 - 1.0 - - 10 - - - -
20/08:30pm 13.8 NW 9 13 1016.6 - 1.0 - - 10 - - - -
20/08:08pm 13.7 WNW 10 14 1016.5 - 1.0 - - 10 - - - -
20/08:00pm 14.0 WNW 11 16 1016.5 - 1.0 - - 10 - - - -

Other Formats:

Comma delimited format used in spreadsheet applications
http://www.bom.gov.au/fwo/IDV60701/IDV60701.94828.axf

JavaScript Object Notation format (JSON) in row-major order
http://www.bom.gov.au/fwo/IDV60701/IDV60701.94828.json